MSC Kalamata — VRPE8 — position and weather

sailwx.info

Track history (hours):
 
Tides and Currents Weather Stations Pressure Air Temp Water Temp Dewpoint Dewpoint Depression Visibility Wind Speed Wind Dir Waves Ship Positions

MSC Kalamata

Last reported at 2017-Sep-20 18:30 UTC. Time now 2017-Sep-20 18:33 UTC.
Position N 41°17' E 002°13'.

Length 304 m; draft 10.8 m.

Type: Ship (hazmat cat D). MMSI: 477510600.

Date/timePositionNaut miles runAvg speedWind from/ knotsBaromVisibWave heightAir tempDewpointWater temp
2017-Sep-20 18:30N 41°17' E 002°13'3 6.5
2017-Sep-20 18:00N 41°17' E 002°17'5 8.8
2017-Sep-20 17:29N 41°19' E 002°22'23217.9
2017-Sep-20 04:34N 42°59' E 007°05'120.6
2017-Sep-20 04:30N 42°60' E 007°06'1020.5
2017-Sep-20 04:00N 43°04' E 007°18'1020.3
2017-Sep-20 03:30N 43°09' E 007°31'2020.4
2017-Sep-20 02:33N 43°18' E 007°55'120.4
2017-Sep-20 02:29N 43°18' E 007°56'1020.3
2017-Sep-20 02:00N 43°23' E 008°08'1020.0
2017-Sep-20 01:30N 43°27' E 008°21'1020.1
2017-Sep-20 01:00N 43°32' E 008°33'1020.2
2017-Sep-20 00:30N 43°36' E 008°46'1119.9
2017-Sep-19 23:57N 43°41' E 008°59'1019.8
2017-Sep-19 23:26N 43°46' E 009°12'820.0
2017-Sep-19 23:00N 43°50' E 009°22'1020.1
2017-Sep-19 22:30N 43°54' E 009°35'1020.2
2017-Sep-19 22:00N 43°59' E 009°47'612.5
2017-Sep-19 21:30N 44°04' E 009°51'2 3.9
2017-Sep-19 20:57N 44°06' E 009°51'0 0.0
2017-Sep-19 20:24N 44°06' E 009°51'0 0.0
2017-Sep-19 20:00N 44°06' E 009°51'0 0.0
2017-Sep-19 19:30N 44°06' E 009°51'0 0.0
2017-Sep-19 19:00N 44°06' E 009°51'0 0.0
2017-Sep-19 18:30N 44°06' E 009°51'0 0.1
2017-Sep-19 18:00N 44°06' E 009°51'0 0.1
2017-Sep-19 17:30N 44°06' E 009°51'0 0.0
2017-Sep-19 17:00N 44°06' E 009°51'0 0.0
2017-Sep-19 16:30N 44°06' E 009°51'0 0.0
2017-Sep-19 16:00N 44°06' E 009°51'0 0.0
2017-Sep-19 15:30N 44°06' E 009°51'0 0.0
2017-Sep-19 15:00N 44°06' E 009°51'0 0.0
2017-Sep-19 14:24N 44°06' E 009°51'0 0.0
2017-Sep-19 14:00N 44°06' E 009°51'0 0.0
2017-Sep-19 13:30N 44°06' E 009°51'0 0.0
2017-Sep-19 13:00N 44°06' E 009°51'0 0.0
2017-Sep-19 12:30N 44°06' E 009°51'0 0.0
2017-Sep-19 12:00N 44°06' E 009°51'0 0.0
2017-Sep-19 11:30N 44°06' E 009°51'0 0.0
2017-Sep-19 11:00N 44°06' E 009°51'0 0.0
2017-Sep-19 10:30N 44°06' E 009°51'0 0.0
2017-Sep-19 10:00N 44°06' E 009°51'0 0.0
2017-Sep-19 09:30N 44°06' E 009°51'0 0.0
2017-Sep-19 09:00N 44°06' E 009°51'0 0.0
2017-Sep-19 08:30N 44°06' E 009°51'0 0.0
2017-Sep-19 07:57N 44°06' E 009°51'0 0.0
2017-Sep-19 07:30N 44°06' E 009°51'0 0.0
2017-Sep-19 06:57N 44°06' E 009°51'0 0.0
2017-Sep-19 06:30N 44°06' E 009°51'0 0.0
2017-Sep-19 06:00N 44°06' E 009°51'0 0.0
2017-Sep-19 05:27N 44°06' E 009°51'0 0.0
2017-Sep-19 05:00N 44°06' E 009°51'0 0.0
2017-Sep-19 04:30N 44°06' E 009°51'0 0.0
2017-Sep-19 04:00N 44°06' E 009°51'0 0.0
2017-Sep-19 03:30N 44°06' E 009°51'0 0.0
2017-Sep-19 03:00N 44°06' E 009°51'0 0.0
2017-Sep-19 02:21N 44°06' E 009°51'0 0.0
2017-Sep-19 02:00N 44°06' E 009°51'0 0.0
2017-Sep-19 01:30N 44°06' E 009°51'0 0.0
2017-Sep-19 01:00N 44°06' E 009°51'0 0.0
2017-Sep-19 00:27N 44°06' E 009°51'0 0.0
2017-Sep-19 00:00N 44°06' E 009°51'0 0.0
2017-Sep-18 23:30N 44°06' E 009°51'0 0.0
2017-Sep-18 22:57N 44°06' E 009°51'0 0.0
2017-Sep-18 22:30N 44°06' E 009°51'0 0.0
2017-Sep-18 22:01N 44°06' E 009°51'1 2.7
2017-Sep-18 21:30N 44°05' E 009°51'4 7.2
2017-Sep-18 21:00N 44°02' E 009°54'3 6.0
2017-Sep-18 20:30N 43°60' E 009°57'4 8.6
2017-Sep-18 20:00N 43°56' E 009°59'817.0
2017-Sep-18 19:31N 43°48' E 010°02'917.3
2017-Sep-18 19:01N 43°40' E 010°05'917.5
2017-Sep-18 18:31N 43°31' E 010°05'917.5
2017-Sep-18 18:00N 43°22' E 010°05'917.7
2017-Sep-18 17:30N 43°13' E 010°04'917.7
2017-Sep-18 17:00N 43°04' E 010°04'816.9
2017-Sep-18 16:30N 42°56' E 010°02'1216.7
2017-Sep-18 15:48N 42°44' E 010°00'717.3
2017-Sep-18 15:23N 42°40' E 010°08'817.2
2017-Sep-18 14:56N 42°36' E 010°17'817.5
2017-Sep-18 14:30N 42°30' E 010°24'917.9
2017-Sep-18 13:59N 42°24' E 010°33'19211.9
2017-Sep-17 21:53N 40°50' E 014°17'0 0.0
2017-Sep-17 21:23N 40°50' E 014°17'0 0.0
2017-Sep-17 20:53N 40°50' E 014°17'0 0.0
2017-Sep-17 20:23N 40°50' E 014°17'0 0.0
2017-Sep-17 19:53N 40°50' E 014°17'0 0.0
2017-Sep-17 19:29N 40°50' E 014°17'0 0.0
2017-Sep-17 18:59N 40°50' E 014°17'0 0.0
2017-Sep-17 18:29N 40°50' E 014°17'0 0.0
2017-Sep-17 17:59N 40°50' E 014°17'0 0.0
2017-Sep-17 17:29N 40°50' E 014°17'0 0.0
2017-Sep-17 16:59N 40°50' E 014°17'0 0.0
2017-Sep-17 16:29N 40°50' E 014°17'0 0.0
2017-Sep-17 15:59N 40°50' E 014°17'0 0.0
2017-Sep-17 15:29N 40°50' E 014°17'0 0.0
2017-Sep-17 14:59N 40°50' E 014°17'0 0.0
2017-Sep-17 14:29N 40°50' E 014°17'0 0.0
2017-Sep-17 13:59N 40°50' E 014°17'0 0.0
2017-Sep-17 13:29N 40°50' E 014°17'0 0.0
2017-Sep-17 12:47N 40°50' E 014°17'0 0.0
2017-Sep-17 12:17N 40°50' E 014°17'0 0.0
2017-Sep-17 11:47N 40°50' E 014°17'0 0.0
2017-Sep-17 11:23N 40°50' E 014°17'0 0.0
2017-Sep-17 10:53N 40°50' E 014°17'0 0.0
2017-Sep-17 10:23N 40°50' E 014°17'0 0.0
2017-Sep-17 09:53N 40°50' E 014°17'0 0.0
2017-Sep-17 09:23N 40°50' E 014°17'0 0.0
2017-Sep-17 08:53N 40°50' E 014°17'0 0.0
2017-Sep-17 08:23N 40°50' E 014°17'0 0.0
2017-Sep-17 07:41N 40°50' E 014°17'0 0.0
2017-Sep-17 07:27N 40°50' E 014°17'1 1.2
2017-Sep-17 06:56N 40°50' E 014°17'3 5.1
2017-Sep-17 06:24N 40°47' E 014°17'0 0.9
2017-Sep-17 05:59N 40°47' E 014°17'4813.9
2017-Sep-17 02:32N 40°01' E 014°33'3819.7
2017-Sep-17 00:37N 39°30' E 015°01'1019.8
2017-Sep-17 00:05N 39°21' E 015°07'220.2
2017-Sep-17 00:00N 39°19' E 015°08'1019.8
2017-Sep-16 23:29N 39°11' E 015°15'1020.4
2017-Sep-16 23:00N 39°02' E 015°22'1020.6
2017-Sep-16 22:31N 38°54' E 015°30'1121.7
2017-Sep-16 22:00N 38°45' E 015°37'1121.7
2017-Sep-16 21:30N 38°36' E 015°45'1020.1
2017-Sep-16 21:00N 38°28' E 015°52'2 3.3
2017-Sep-16 20:29N 38°28' E 015°55'0 0.0
2017-Sep-16 19:59N 38°28' E 015°55'0 0.0
2017-Sep-16 19:29N 38°28' E 015°55'0 0.0
2017-Sep-16 18:59N 38°28' E 015°55'0 0.0
2017-Sep-16 18:29N 38°28' E 015°55'0 0.0
2017-Sep-16 17:59N 38°28' E 015°55'0 0.0
2017-Sep-16 17:29N 38°28' E 015°55'0 0.0
2017-Sep-16 16:59N 38°28' E 015°55'0 0.0
2017-Sep-16 16:29N 38°28' E 015°55'0 0.0
2017-Sep-16 15:59N 38°28' E 015°55'0 0.0
2017-Sep-16 15:20N 38°28' E 015°55'0 0.0
2017-Sep-16 14:59N 38°28' E 015°55'0 0.0
2017-Sep-16 14:29N 38°28' E 015°55'0 0.0
2017-Sep-16 13:59N 38°28' E 015°55'0 0.0
2017-Sep-16 13:26N 38°28' E 015°55'0 0.0
2017-Sep-16 12:56N 38°28' E 015°55'0 0.0
2017-Sep-16 12:29N 38°28' E 015°55'0 0.0
2017-Sep-16 11:56N 38°28' E 015°55'0 0.0
2017-Sep-16 11:26N 38°28' E 015°55'0 0.0
2017-Sep-16 10:56N 38°28' E 015°55'0 0.0
2017-Sep-16 10:26N 38°28' E 015°55'0 0.0
2017-Sep-16 09:44N 38°28' E 015°55'0 0.1
2017-Sep-16 09:26N 38°28' E 015°55'0 0.0
2017-Sep-16 08:59N 38°28' E 015°55'0 0.0
2017-Sep-16 08:26N 38°28' E 015°55'0 0.0
2017-Sep-16 07:59N 38°28' E 015°55'0 0.0
2017-Sep-16 07:26N 38°28' E 015°55'0 0.0
2017-Sep-16 06:56N 38°28' E 015°55'0 0.0
2017-Sep-16 06:29N 38°28' E 015°55'0 0.0
2017-Sep-16 05:59N 38°28' E 015°55'0 0.0
2017-Sep-16 05:29N 38°28' E 015°55'0 0.0
2017-Sep-16 04:59N 38°28' E 015°55'0 0.0
2017-Sep-16 04:29N 38°28' E 015°55'0 0.0
2017-Sep-16 03:59N 38°28' E 015°55'0 0.0
2017-Sep-16 03:29N 38°28' E 015°55'0 0.0
2017-Sep-16 02:59N 38°28' E 015°55'0 0.0
2017-Sep-16 02:26N 38°28' E 015°55'0 0.0
2017-Sep-16 01:59N 38°28' E 015°55'0 0.0
2017-Sep-16 01:29N 38°28' E 015°55'0 0.0
2017-Sep-16 00:56N 38°28' E 015°55'0 0.0
2017-Sep-16 00:26N 38°28' E 015°55'0 0.0
2017-Sep-15 23:59N 38°28' E 015°55'0 0.0
2017-Sep-15 23:26N 38°28' E 015°55'0 0.0
2017-Sep-15 22:56N 38°28' E 015°55'0 0.0
2017-Sep-15 22:29N 38°28' E 015°55'0 0.0
2017-Sep-15 21:56N 38°28' E 015°55'0 0.0
2017-Sep-15 21:30N 38°28' E 015°55'1 2.3
2017-Sep-15 21:00N 38°27' E 015°54'2 4.2
2017-Sep-15 20:30N 38°27' E 015°52'1 2.5
2017-Sep-15 20:00N 38°28' E 015°50'5 9.6
2017-Sep-15 19:30N 38°32' E 015°46'1019.7
2017-Sep-15 19:00N 38°39' E 015°37'918.6
2017-Sep-15 18:30N 38°45' E 015°28'1019.8
2017-Sep-15 18:00N 38°52' E 015°19'1020.5
2017-Sep-15 17:30N 38°59' E 015°10'1020.8
2017-Sep-15 17:00N 39°06' E 015°00'1121.3
2017-Sep-15 16:30N 39°14' E 014°50'1121.7
2017-Sep-15 16:00N 39°21' E 014°40'1321.4
2017-Sep-15 15:25N 39°30' E 014°29'1021.4
2017-Sep-15 14:55N 39°38' E 014°19'1421.1
2017-Sep-15 14:15N 39°48' E 014°06'821.1
2017-Sep-15 13:54N 39°53' E 013°59'1021.5
2017-Sep-15 13:27N 39°60' E 013°50'1021.7
2017-Sep-15 13:00N 40°06' E 013°41'1121.6
2017-Sep-15 12:30N 40°14' E 013°31'1121.5
2017-Sep-15 12:00N 40°21' E 013°21'18321.0
2017-Sep-15 03:19N 42°29' E 010°26'820.8
2017-Sep-15 02:56N 42°34' E 010°18'920.6
2017-Sep-15 02:30N 42°39' E 010°09'1518.1
2017-Sep-15 01:42N 42°53' E 010°03'421.9
2017-Sep-15 01:30N 42°57' E 010°04'1121.4
2017-Sep-15 01:00N 43°08' E 010°07'1020.8
2017-Sep-15 00:30N 43°18' E 010°10'1020.8
2017-Sep-15 00:00N 43°28' E 010°13'611.4
2017-Sep-14 23:30N 43°33' E 010°17'2 4.0
2017-Sep-14 23:00N 43°35' E 010°18'0 0.0
2017-Sep-14 22:30N 43°35' E 010°18'0 0.0
2017-Sep-14 22:00N 43°35' E 010°18'0 0.0
2017-Sep-14 21:21N 43°35' E 010°18'0 0.0
2017-Sep-14 21:00N 43°35' E 010°18'0 0.0
2017-Sep-14 20:30N 43°35' E 010°18'0 0.0
2017-Sep-14 20:00N 43°35' E 010°18'0 0.0
2017-Sep-14 19:30N 43°35' E 010°18'0 0.0
2017-Sep-14 19:00N 43°35' E 010°18'0 0.0
2017-Sep-14 18:30N 43°35' E 010°18'0 0.0
2017-Sep-14 17:57N 43°35' E 010°18'0 0.0
2017-Sep-14 17:24N 43°35' E 010°18'0 0.0
2017-Sep-14 17:00N 43°35' E 010°18'0 0.0
2017-Sep-14 16:30N 43°35' E 010°18'0 0.0
2017-Sep-14 16:00N 43°35' E 010°18'0 0.0
2017-Sep-14 15:30N 43°35' E 010°18'0 0.0
2017-Sep-14 14:57N 43°35' E 010°18'0 0.0
2017-Sep-14 14:30N 43°35' E 010°18'0 0.0
2017-Sep-14 13:57N 43°35' E 010°18'0 0.0
2017-Sep-14 13:30N 43°35' E 010°18'0 0.0
2017-Sep-14 13:00N 43°35' E 010°18'0 0.0
2017-Sep-14 12:30N 43°35' E 010°18'0 0.0
2017-Sep-14 12:00N 43°35' E 010°18'0 0.0
2017-Sep-14 11:27N 43°35' E 010°18'0 0.0
2017-Sep-14 11:00N 43°35' E 010°18'0 0.0
2017-Sep-14 10:30N 43°35' E 010°18'0 0.0
2017-Sep-14 10:00N 43°35' E 010°18'0 0.0
2017-Sep-14 09:30N 43°35' E 010°18'0 0.0
2017-Sep-14 09:00N 43°35' E 010°18'0 0.0
2017-Sep-14 08:30N 43°35' E 010°18'0 0.0
2017-Sep-14 08:00N 43°35' E 010°18'0 0.0
2017-Sep-14 07:30N 43°35' E 010°18'0 0.0
2017-Sep-14 07:00N 43°35' E 010°18'0 0.0
2017-Sep-14 06:30N 43°35' E 010°18'0 0.6
2017-Sep-14 06:01N 43°34' E 010°18'2 4.1
2017-Sep-14 05:30N 43°32' E 010°17'2 3.8
2017-Sep-14 05:00N 43°31' E 010°15'2 3.1
2017-Sep-14 04:30N 43°30' E 010°13'1 1.1
2017-Sep-14 04:00N 43°30' E 010°13'1 1.8
2017-Sep-14 03:30N 43°30' E 010°12'510.4
2017-Sep-14 03:00N 43°32' E 010°05'1020.7
2017-Sep-14 02:30N 43°42' E 010°05'1020.4
2017-Sep-14 02:00N 43°51' E 010°00'1020.4
2017-Sep-14 01:30N 44°00' E 009°53'611.7
2017-Sep-14 01:00N 44°06' E 009°51'1 1.4
2017-Sep-14 00:29N 44°06' E 009°51'0 0.0
2017-Sep-13 23:59N 44°06' E 009°51'0 0.0
2017-Sep-13 23:29N 44°06' E 009°51'0 0.0
2017-Sep-13 22:59N 44°06' E 009°51'0 0.0
2017-Sep-13 22:26N 44°06' E 009°51'0 0.0
2017-Sep-13 21:59N 44°06' E 009°51'0 0.0
2017-Sep-13 21:29N 44°06' E 009°51'0 0.0
2017-Sep-13 20:56N 44°06' E 009°51'0 0.0
2017-Sep-13 20:26N 44°06' E 009°51'0 0.0
2017-Sep-13 19:59N 44°06' E 009°51'0 0.0
2017-Sep-13 19:29N 44°06' E 009°51'0 0.0
2017-Sep-13 18:53N 44°06' E 009°51'0 0.0
2017-Sep-13 18:26N 44°06' E 009°51'0 0.0
2017-Sep-13 17:59N 44°06' E 009°51'0 0.0
2017-Sep-13 17:29N 44°06' E 009°51'0 0.0
2017-Sep-13 16:59N 44°06' E 009°51'0 0.0
2017-Sep-13 16:29N 44°06' E 009°51'0 0.0
2017-Sep-13 15:59N 44°06' E 009°51'0 0.0
2017-Sep-13 15:29N 44°06' E 009°51'0 0.0
2017-Sep-13 14:59N 44°06' E 009°51'0 0.0
2017-Sep-13 14:29N 44°06' E 009°51'0 0.0
2017-Sep-13 13:56N 44°06' E 009°51'0 0.0
2017-Sep-13 13:29N 44°06' E 009°51'0 0.0
2017-Sep-13 12:59N 44°06' E 009°51'0 0.0
2017-Sep-13 12:29N 44°06' E 009°51'0 0.0
2017-Sep-13 11:59N 44°06' E 009°51'0 0.0
2017-Sep-13 11:26N 44°06' E 009°51'0 0.0
2017-Sep-13 10:53N 44°06' E 009°51'0 0.0
2017-Sep-13 10:29N 44°06' E 009°51'0 0.0
2017-Sep-13 09:59N 44°06' E 009°51'0 0.0
2017-Sep-13 09:29N 44°06' E 009°51'0 0.0
2017-Sep-13 08:56N 44°06' E 009°51'0 0.0
2017-Sep-13 08:29N 44°06' E 009°51'0 0.0
2017-Sep-13 07:59N 44°06' E 009°51'0 0.0
2017-Sep-13 07:29N 44°06' E 009°51'0 0.0
2017-Sep-13 06:59N 44°06' E 009°51'0 0.1
2017-Sep-13 06:30N 44°06' E 009°51'2 3.4
2017-Sep-13 06:00N 44°05' E 009°51'5 9.7
2017-Sep-13 05:30N 44°01' E 009°56'3 5.7
2017-Sep-13 05:00N 43°59' E 009°58'0 0.8
2017-Sep-13 04:27N 43°59' E 009°58'0 0.9
2017-Sep-13 04:01N 43°58' E 009°58'2 4.5
2017-Sep-13 03:31N 43°56' E 009°60'5 9.5
2017-Sep-13 03:00N 43°52' E 010°03'1 1.7
2017-Sep-13 02:30N 43°51' E 010°03'1 1.5
2017-Sep-13 02:00N 43°51' E 010°02'1 1.5
2017-Sep-13 01:31N 43°51' E 010°01'1 1.6
2017-Sep-13 01:01N 43°51' E 010°00'1 1.6
2017-Sep-13 00:31N 43°51' E 009°59'0 0.6
2017-Sep-13 00:00N 43°51' E 009°59'3 5.2
2017-Sep-12 23:30N 43°52' E 010°02'1 1.6
2017-Sep-12 23:00N 43°52' E 010°01'1 1.3
2017-Sep-12 22:30N 43°52' E 010°00'1 1.4
2017-Sep-12 22:00N 43°52' E 009°60'1 1.4
2017-Sep-12 21:31N 43°52' E 009°59'1 1.4
2017-Sep-12 21:00N 43°52' E 009°58'1 1.6
2017-Sep-12 20:30N 43°51' E 009°57'1 1.8
2017-Sep-12 20:00N 43°51' E 009°55'2 3.7
2017-Sep-12 19:30N 43°50' E 009°53'510.0
2017-Sep-12 19:00N 43°48' E 009°47'510.2
2017-Sep-12 18:31N 43°45' E 009°41'510.2
2017-Sep-12 18:00N 43°43' E 009°35'510.3
2017-Sep-12 17:30N 43°41' E 009°28'510.4
2017-Sep-12 17:00N 43°39' E 009°22'510.4
2017-Sep-12 16:30N 43°36' E 009°15'510.4
2017-Sep-12 16:01N 43°34' E 009°09'510.4
2017-Sep-12 15:31N 43°32' E 009°03'510.5
2017-Sep-12 15:01N 43°29' E 008°56'510.7
2017-Sep-12 14:31N 43°26' E 008°50'510.8
2017-Sep-12 14:00N 43°23' E 008°44'510.5
2017-Sep-12 13:30N 43°20' E 008°37'510.5
2017-Sep-12 13:00N 43°18' E 008°31'610.6
2017-Sep-12 12:27N 43°15' E 008°24'4910.5
2017-Sep-12 07:45N 42°49' E 007°27'22410.6
2017-Sep-11 10:40N 40°52' E 003°10'210.2
2017-Sep-11 10:29N 40°51' E 003°07'610.2
2017-Sep-11 09:56N 40°48' E 003°01'510.4
2017-Sep-11 09:30N 40°46' E 002°56'510.4
2017-Sep-11 09:00N 40°43' E 002°50'510.3
2017-Sep-11 08:30N 40°40' E 002°44'510.5
2017-Sep-11 08:00N 40°38' E 002°39'510.6
2017-Sep-11 07:30N 40°35' E 002°33'510.6
2017-Sep-11 07:00N 40°32' E 002°27'510.3
2017-Sep-11 06:30N 40°29' E 002°21'510.2
2017-Sep-11 06:00N 40°27' E 002°15'510.1
2017-Sep-11 05:30N 40°24' E 002°09'510.1
2017-Sep-11 05:00N 40°22' E 002°04'510.1
2017-Sep-11 04:30N 40°19' E 001°58'510.0
2017-Sep-11 04:00N 40°16' E 001°53'5 9.7
2017-Sep-11 03:30N 40°14' E 001°47'5 9.6
2017-Sep-11 03:00N 40°11' E 001°42'5 9.7
2017-Sep-11 02:30N 40°09' E 001°36'5 9.9
2017-Sep-11 02:00N 40°06' E 001°31'510.2
2017-Sep-11 01:30N 40°03' E 001°25'510.1
2017-Sep-11 01:00N 40°01' E 001°19'510.1
2017-Sep-11 00:30N 39°58' E 001°14'510.2
2017-Sep-11 00:00N 39°56' E 001°08'510.4
2017-Sep-10 23:30N 39°53' E 001°02'610.4
2017-Sep-10 22:57N 39°50' E 000°56'  
Track history (hours):
 
Tides and Currents Weather Stations Pressure Air Temp Water Temp Dewpoint Dewpoint Depression Visibility Wind Speed Wind Dir Waves Ship Positions

MSC Kalamata

Last reported at 2017-Sep-20 18:30 UTC. Time now 2017-Sep-20 18:33 UTC.
Position N 41°17' E 002°13'.

Length 304 m; draft 10.8 m.

Type: Ship (hazmat cat D). MMSI: 477510600.

Date/timePositionNaut miles runAvg speedWind from/ knotsBaromVisibWave heightAir tempDewpointWater temp
2017-Sep-20 18:30N 41°17' E 002°13'3 6.5
2017-Sep-20 18:00N 41°17' E 002°17'5 8.8
2017-Sep-20 17:29N 41°19' E 002°22'23217.9
2017-Sep-20 04:34N 42°59' E 007°05'120.6
2017-Sep-20 04:30N 42°60' E 007°06'1020.5
2017-Sep-20 04:00N 43°04' E 007°18'1020.3
2017-Sep-20 03:30N 43°09' E 007°31'2020.4
2017-Sep-20 02:33N 43°18' E 007°55'120.4
2017-Sep-20 02:29N 43°18' E 007°56'1020.3
2017-Sep-20 02:00N 43°23' E 008°08'1020.0
2017-Sep-20 01:30N 43°27' E 008°21'1020.1
2017-Sep-20 01:00N 43°32' E 008°33'1020.2
2017-Sep-20 00:30N 43°36' E 008°46'1119.9
2017-Sep-19 23:57N 43°41' E 008°59'1019.8
2017-Sep-19 23:26N 43°46' E 009°12'820.0
2017-Sep-19 23:00N 43°50' E 009°22'1020.1
2017-Sep-19 22:30N 43°54' E 009°35'1020.2
2017-Sep-19 22:00N 43°59' E 009°47'612.5
2017-Sep-19 21:30N 44°04' E 009°51'2 3.9
2017-Sep-19 20:57N 44°06' E 009°51'0 0.0
2017-Sep-19 20:24N 44°06' E 009°51'0 0.0
2017-Sep-19 20:00N 44°06' E 009°51'0 0.0
2017-Sep-19 19:30N 44°06' E 009°51'0 0.0
2017-Sep-19 19:00N 44°06' E 009°51'0 0.0
2017-Sep-19 18:30N 44°06' E 009°51'0 0.1
2017-Sep-19 18:00N 44°06' E 009°51'0 0.1
2017-Sep-19 17:30N 44°06' E 009°51'0 0.0
2017-Sep-19 17:00N 44°06' E 009°51'0 0.0
2017-Sep-19 16:30N 44°06' E 009°51'0 0.0
2017-Sep-19 16:00N 44°06' E 009°51'0 0.0
2017-Sep-19 15:30N 44°06' E 009°51'0 0.0
2017-Sep-19 15:00N 44°06' E 009°51'0 0.0
2017-Sep-19 14:24N 44°06' E 009°51'0 0.0
2017-Sep-19 14:00N 44°06' E 009°51'0 0.0
2017-Sep-19 13:30N 44°06' E 009°51'0 0.0
2017-Sep-19 13:00N 44°06' E 009°51'0 0.0
2017-Sep-19 12:30N 44°06' E 009°51'0 0.0
2017-Sep-19 12:00N 44°06' E 009°51'0 0.0
2017-Sep-19 11:30N 44°06' E 009°51'0 0.0
2017-Sep-19 11:00N 44°06' E 009°51'0 0.0
2017-Sep-19 10:30N 44°06' E 009°51'0 0.0
2017-Sep-19 10:00N 44°06' E 009°51'0 0.0
2017-Sep-19 09:30N 44°06' E 009°51'0 0.0
2017-Sep-19 09:00N 44°06' E 009°51'0 0.0
2017-Sep-19 08:30N 44°06' E 009°51'0 0.0
2017-Sep-19 07:57N 44°06' E 009°51'0 0.0
2017-Sep-19 07:30N 44°06' E 009°51'0 0.0
2017-Sep-19 06:57N 44°06' E 009°51'0 0.0
2017-Sep-19 06:30N 44°06' E 009°51'0 0.0
2017-Sep-19 06:00N 44°06' E 009°51'0 0.0
2017-Sep-19 05:27N 44°06' E 009°51'0 0.0
2017-Sep-19 05:00N 44°06' E 009°51'0 0.0
2017-Sep-19 04:30N 44°06' E 009°51'0 0.0
2017-Sep-19 04:00N 44°06' E 009°51'0 0.0
2017-Sep-19 03:30N 44°06' E 009°51'0 0.0
2017-Sep-19 03:00N 44°06' E 009°51'0 0.0
2017-Sep-19 02:21N 44°06' E 009°51'0 0.0
2017-Sep-19 02:00N 44°06' E 009°51'0 0.0
2017-Sep-19 01:30N 44°06' E 009°51'0 0.0
2017-Sep-19 01:00N 44°06' E 009°51'0 0.0
2017-Sep-19 00:27N 44°06' E 009°51'0 0.0
2017-Sep-19 00:00N 44°06' E 009°51'0 0.0
2017-Sep-18 23:30N 44°06' E 009°51'0 0.0
2017-Sep-18 22:57N 44°06' E 009°51'0 0.0
2017-Sep-18 22:30N 44°06' E 009°51'0 0.0
2017-Sep-18 22:01N 44°06' E 009°51'1 2.7
2017-Sep-18 21:30N 44°05' E 009°51'4 7.2
2017-Sep-18 21:00N 44°02' E 009°54'3 6.0
2017-Sep-18 20:30N 43°60' E 009°57'4 8.6
2017-Sep-18 20:00N 43°56' E 009°59'817.0
2017-Sep-18 19:31N 43°48' E 010°02'917.3
2017-Sep-18 19:01N 43°40' E 010°05'917.5
2017-Sep-18 18:31N 43°31' E 010°05'917.5
2017-Sep-18 18:00N 43°22' E 010°05'917.7
2017-Sep-18 17:30N 43°13' E 010°04'917.7
2017-Sep-18 17:00N 43°04' E 010°04'816.9
2017-Sep-18 16:30N 42°56' E 010°02'1216.7
2017-Sep-18 15:48N 42°44' E 010°00'717.3
2017-Sep-18 15:23N 42°40' E 010°08'817.2
2017-Sep-18 14:56N 42°36' E 010°17'817.5
2017-Sep-18 14:30N 42°30' E 010°24'917.9
2017-Sep-18 13:59N 42°24' E 010°33'19211.9
2017-Sep-17 21:53N 40°50' E 014°17'0 0.0
2017-Sep-17 21:23N 40°50' E 014°17'0 0.0
2017-Sep-17 20:53N 40°50' E 014°17'0 0.0
2017-Sep-17 20:23N 40°50' E 014°17'0 0.0
2017-Sep-17 19:53N 40°50' E 014°17'0 0.0
2017-Sep-17 19:29N 40°50' E 014°17'0 0.0
2017-Sep-17 18:59N 40°50' E 014°17'0 0.0
2017-Sep-17 18:29N 40°50' E 014°17'0 0.0
2017-Sep-17 17:59N 40°50' E 014°17'0 0.0
2017-Sep-17 17:29N 40°50' E 014°17'0 0.0
2017-Sep-17 16:59N 40°50' E 014°17'0 0.0
2017-Sep-17 16:29N 40°50' E 014°17'0 0.0
2017-Sep-17 15:59N 40°50' E 014°17'0 0.0
2017-Sep-17 15:29N 40°50' E 014°17'0 0.0
2017-Sep-17 14:59N 40°50' E 014°17'0 0.0
2017-Sep-17 14:29N 40°50' E 014°17'0 0.0
2017-Sep-17 13:59N 40°50' E 014°17'0 0.0
2017-Sep-17 13:29N 40°50' E 014°17'0 0.0
2017-Sep-17 12:47N 40°50' E 014°17'0 0.0
2017-Sep-17 12:17N 40°50' E 014°17'0 0.0
2017-Sep-17 11:47N 40°50' E 014°17'0 0.0
2017-Sep-17 11:23N 40°50' E 014°17'0 0.0
2017-Sep-17 10:53N 40°50' E 014°17'0 0.0
2017-Sep-17 10:23N 40°50' E 014°17'0 0.0
2017-Sep-17 09:53N 40°50' E 014°17'0 0.0
2017-Sep-17 09:23N 40°50' E 014°17'0 0.0
2017-Sep-17 08:53N 40°50' E 014°17'0 0.0
2017-Sep-17 08:23N 40°50' E 014°17'0 0.0
2017-Sep-17 07:41N 40°50' E 014°17'0 0.0
2017-Sep-17 07:27N 40°50' E 014°17'1 1.2
2017-Sep-17 06:56N 40°50' E 014°17'3 5.1
2017-Sep-17 06:24N 40°47' E 014°17'0 0.9
2017-Sep-17 05:59N 40°47' E 014°17'4813.9
2017-Sep-17 02:32N 40°01' E 014°33'3819.7
2017-Sep-17 00:37N 39°30' E 015°01'1019.8
2017-Sep-17 00:05N 39°21' E 015°07'220.2
2017-Sep-17 00:00N 39°19' E 015°08'1019.8
2017-Sep-16 23:29N 39°11' E 015°15'1020.4
2017-Sep-16 23:00N 39°02' E 015°22'1020.6
2017-Sep-16 22:31N 38°54' E 015°30'1121.7
2017-Sep-16 22:00N 38°45' E 015°37'1121.7
2017-Sep-16 21:30N 38°36' E 015°45'1020.1
2017-Sep-16 21:00N 38°28' E 015°52'2 3.3
2017-Sep-16 20:29N 38°28' E 015°55'0 0.0
2017-Sep-16 19:59N 38°28' E 015°55'0 0.0
2017-Sep-16 19:29N 38°28' E 015°55'0 0.0
2017-Sep-16 18:59N 38°28' E 015°55'0 0.0
2017-Sep-16 18:29N 38°28' E 015°55'0 0.0
2017-Sep-16 17:59N 38°28' E 015°55'0 0.0
2017-Sep-16 17:29N 38°28' E 015°55'0 0.0
2017-Sep-16 16:59N 38°28' E 015°55'0 0.0
2017-Sep-16 16:29N 38°28' E 015°55'0 0.0
2017-Sep-16 15:59N 38°28' E 015°55'0 0.0
2017-Sep-16 15:20N 38°28' E 015°55'0 0.0
2017-Sep-16 14:59N 38°28' E 015°55'0 0.0
2017-Sep-16 14:29N 38°28' E 015°55'0 0.0
2017-Sep-16 13:59N 38°28' E 015°55'0 0.0
2017-Sep-16 13:26N 38°28' E 015°55'0 0.0
2017-Sep-16 12:56N 38°28' E 015°55'0 0.0
2017-Sep-16 12:29N 38°28' E 015°55'0 0.0
2017-Sep-16 11:56N 38°28' E 015°55'0 0.0
2017-Sep-16 11:26N 38°28' E 015°55'0 0.0
2017-Sep-16 10:56N 38°28' E 015°55'0 0.0
2017-Sep-16 10:26N 38°28' E 015°55'0 0.0
2017-Sep-16 09:44N 38°28' E 015°55'0 0.1
2017-Sep-16 09:26N 38°28' E 015°55'0 0.0
2017-Sep-16 08:59N 38°28' E 015°55'0 0.0
2017-Sep-16 08:26N 38°28' E 015°55'0 0.0
2017-Sep-16 07:59N 38°28' E 015°55'0 0.0
2017-Sep-16 07:26N 38°28' E 015°55'0 0.0
2017-Sep-16 06:56N 38°28' E 015°55'0 0.0
2017-Sep-16 06:29N 38°28' E 015°55'0 0.0
2017-Sep-16 05:59N 38°28' E 015°55'0 0.0
2017-Sep-16 05:29N 38°28' E 015°55'0 0.0
2017-Sep-16 04:59N 38°28' E 015°55'0 0.0
2017-Sep-16 04:29N 38°28' E 015°55'0 0.0
2017-Sep-16 03:59N 38°28' E 015°55'0 0.0
2017-Sep-16 03:29N 38°28' E 015°55'0 0.0
2017-Sep-16 02:59N 38°28' E 015°55'0 0.0
2017-Sep-16 02:26N 38°28' E 015°55'0 0.0
2017-Sep-16 01:59N 38°28' E 015°55'0 0.0
2017-Sep-16 01:29N 38°28' E 015°55'0 0.0
2017-Sep-16 00:56N 38°28' E 015°55'0 0.0
2017-Sep-16 00:26N 38°28' E 015°55'0 0.0
2017-Sep-15 23:59N 38°28' E 015°55'0 0.0
2017-Sep-15 23:26N 38°28' E 015°55'0 0.0
2017-Sep-15 22:56N 38°28' E 015°55'0 0.0
2017-Sep-15 22:29N 38°28' E 015°55'0 0.0
2017-Sep-15 21:56N 38°28' E 015°55'0 0.0
2017-Sep-15 21:30N 38°28' E 015°55'1 2.3
2017-Sep-15 21:00N 38°27' E 015°54'2 4.2
2017-Sep-15 20:30N 38°27' E 015°52'1 2.5
2017-Sep-15 20:00N 38°28' E 015°50'5 9.6
2017-Sep-15 19:30N 38°32' E 015°46'1019.7
2017-Sep-15 19:00N 38°39' E 015°37'918.6
2017-Sep-15 18:30N 38°45' E 015°28'1019.8
2017-Sep-15 18:00N 38°52' E 015°19'1020.5
2017-Sep-15 17:30N 38°59' E 015°10'1020.8
2017-Sep-15 17:00N 39°06' E 015°00'1121.3
2017-Sep-15 16:30N 39°14' E 014°50'1121.7
2017-Sep-15 16:00N 39°21' E 014°40'1321.4
2017-Sep-15 15:25N 39°30' E 014°29'1021.4
2017-Sep-15 14:55N 39°38' E 014°19'1421.1
2017-Sep-15 14:15N 39°48' E 014°06'821.1
2017-Sep-15 13:54N 39°53' E 013°59'1021.5
2017-Sep-15 13:27N 39°60' E 013°50'1021.7
2017-Sep-15 13:00N 40°06' E 013°41'1121.6
2017-Sep-15 12:30N 40°14' E 013°31'1121.5
2017-Sep-15 12:00N 40°21' E 013°21'18321.0
2017-Sep-15 03:19N 42°29' E 010°26'820.8
2017-Sep-15 02:56N 42°34' E 010°18'920.6
2017-Sep-15 02:30N 42°39' E 010°09'1518.1
2017-Sep-15 01:42N 42°53' E 010°03'421.9
2017-Sep-15 01:30N 42°57' E 010°04'1121.4
2017-Sep-15 01:00N 43°08' E 010°07'1020.8
2017-Sep-15 00:30N 43°18' E 010°10'1020.8
2017-Sep-15 00:00N 43°28' E 010°13'611.4
2017-Sep-14 23:30N 43°33' E 010°17'2 4.0
2017-Sep-14 23:00N 43°35' E 010°18'0 0.0
2017-Sep-14 22:30N 43°35' E 010°18'0 0.0
2017-Sep-14 22:00N 43°35' E 010°18'0 0.0
2017-Sep-14 21:21N 43°35' E 010°18'0 0.0
2017-Sep-14 21:00N 43°35' E 010°18'0 0.0
2017-Sep-14 20:30N 43°35' E 010°18'0 0.0
2017-Sep-14 20:00N 43°35' E 010°18'0 0.0
2017-Sep-14 19:30N 43°35' E 010°18'0 0.0
2017-Sep-14 19:00N 43°35' E 010°18'0 0.0
2017-Sep-14 18:30N 43°35' E 010°18'0 0.0
2017-Sep-14 17:57N 43°35' E 010°18'0 0.0
2017-Sep-14 17:24N 43°35' E 010°18'0 0.0
2017-Sep-14 17:00N 43°35' E 010°18'0 0.0
2017-Sep-14 16:30N 43°35' E 010°18'0 0.0
2017-Sep-14 16:00N 43°35' E 010°18'0 0.0
2017-Sep-14 15:30N 43°35' E 010°18'0 0.0
2017-Sep-14 14:57N 43°35' E 010°18'0 0.0
2017-Sep-14 14:30N 43°35' E 010°18'0 0.0
2017-Sep-14 13:57N 43°35' E 010°18'0 0.0
2017-Sep-14 13:30N 43°35' E 010°18'0 0.0
2017-Sep-14 13:00N 43°35' E 010°18'0 0.0
2017-Sep-14 12:30N 43°35' E 010°18'0 0.0
2017-Sep-14 12:00N 43°35' E 010°18'0 0.0
2017-Sep-14 11:27N 43°35' E 010°18'0 0.0
2017-Sep-14 11:00N 43°35' E 010°18'0 0.0
2017-Sep-14 10:30N 43°35' E 010°18'0 0.0
2017-Sep-14 10:00N 43°35' E 010°18'0 0.0
2017-Sep-14 09:30N 43°35' E 010°18'0 0.0
2017-Sep-14 09:00N 43°35' E 010°18'0 0.0
2017-Sep-14 08:30N 43°35' E 010°18'0 0.0
2017-Sep-14 08:00N 43°35' E 010°18'0 0.0
2017-Sep-14 07:30N 43°35' E 010°18'0 0.0
2017-Sep-14 07:00N 43°35' E 010°18'0 0.0
2017-Sep-14 06:30N 43°35' E 010°18'0 0.6
2017-Sep-14 06:01N 43°34' E 010°18'2 4.1
2017-Sep-14 05:30N 43°32' E 010°17'2 3.8
2017-Sep-14 05:00N 43°31' E 010°15'2 3.1
2017-Sep-14 04:30N 43°30' E 010°13'1 1.1
2017-Sep-14 04:00N 43°30' E 010°13'1 1.8
2017-Sep-14 03:30N 43°30' E 010°12'510.4
2017-Sep-14 03:00N 43°32' E 010°05'1020.7
2017-Sep-14 02:30N 43°42' E 010°05'1020.4
2017-Sep-14 02:00N 43°51' E 010°00'1020.4
2017-Sep-14 01:30N 44°00' E 009°53'611.7
2017-Sep-14 01:00N 44°06' E 009°51'1 1.4
2017-Sep-14 00:29N 44°06' E 009°51'0 0.0
2017-Sep-13 23:59N 44°06' E 009°51'0 0.0
2017-Sep-13 23:29N 44°06' E 009°51'0 0.0
2017-Sep-13 22:59N 44°06' E 009°51'0 0.0
2017-Sep-13 22:26N 44°06' E 009°51'0 0.0
2017-Sep-13 21:59N 44°06' E 009°51'0 0.0
2017-Sep-13 21:29N 44°06' E 009°51'0 0.0
2017-Sep-13 20:56N 44°06' E 009°51'0 0.0
2017-Sep-13 20:26N 44°06' E 009°51'0 0.0
2017-Sep-13 19:59N 44°06' E 009°51'0 0.0
2017-Sep-13 19:29N 44°06' E 009°51'0 0.0
2017-Sep-13 18:53N 44°06' E 009°51'0 0.0
2017-Sep-13 18:26N 44°06' E 009°51'0 0.0
2017-Sep-13 17:59N 44°06' E 009°51'0 0.0
2017-Sep-13 17:29N 44°06' E 009°51'0 0.0
2017-Sep-13 16:59N 44°06' E 009°51'0 0.0
2017-Sep-13 16:29N 44°06' E 009°51'0 0.0
2017-Sep-13 15:59N 44°06' E 009°51'0 0.0
2017-Sep-13 15:29N 44°06' E 009°51'0 0.0
2017-Sep-13 14:59N 44°06' E 009°51'0 0.0
2017-Sep-13 14:29N 44°06' E 009°51'0 0.0
2017-Sep-13 13:56N 44°06' E 009°51'0 0.0
2017-Sep-13 13:29N 44°06' E 009°51'0 0.0
2017-Sep-13 12:59N 44°06' E 009°51'0 0.0
2017-Sep-13 12:29N 44°06' E 009°51'0 0.0
2017-Sep-13 11:59N 44°06' E 009°51'0 0.0
2017-Sep-13 11:26N 44°06' E 009°51'0 0.0
2017-Sep-13 10:53N 44°06' E 009°51'0 0.0
2017-Sep-13 10:29N 44°06' E 009°51'0 0.0
2017-Sep-13 09:59N 44°06' E 009°51'0 0.0
2017-Sep-13 09:29N 44°06' E 009°51'0 0.0
2017-Sep-13 08:56N 44°06' E 009°51'0 0.0
2017-Sep-13 08:29N 44°06' E 009°51'0 0.0
2017-Sep-13 07:59N 44°06' E 009°51'0 0.0
2017-Sep-13 07:29N 44°06' E 009°51'0 0.0
2017-Sep-13 06:59N 44°06' E 009°51'0 0.1
2017-Sep-13 06:30N 44°06' E 009°51'2 3.4
2017-Sep-13 06:00N 44°05' E 009°51'5 9.7
2017-Sep-13 05:30N 44°01' E 009°56'3 5.7
2017-Sep-13 05:00N 43°59' E 009°58'0 0.8
2017-Sep-13 04:27N 43°59' E 009°58'0 0.9
2017-Sep-13 04:01N 43°58' E 009°58'2 4.5
2017-Sep-13 03:31N 43°56' E 009°60'5 9.5
2017-Sep-13 03:00N 43°52' E 010°03'1 1.7
2017-Sep-13 02:30N 43°51' E 010°03'1 1.5
2017-Sep-13 02:00N 43°51' E 010°02'1 1.5
2017-Sep-13 01:31N 43°51' E 010°01'1 1.6
2017-Sep-13 01:01N 43°51' E 010°00'1 1.6
2017-Sep-13 00:31N 43°51' E 009°59'0 0.6
2017-Sep-13 00:00N 43°51' E 009°59'3 5.2
2017-Sep-12 23:30N 43°52' E 010°02'1 1.6
2017-Sep-12 23:00N 43°52' E 010°01'1 1.3
2017-Sep-12 22:30N 43°52' E 010°00'1 1.4
2017-Sep-12 22:00N 43°52' E 009°60'1 1.4
2017-Sep-12 21:31N 43°52' E 009°59'1 1.4
2017-Sep-12 21:00N 43°52' E 009°58'1 1.6
2017-Sep-12 20:30N 43°51' E 009°57'1 1.8
2017-Sep-12 20:00N 43°51' E 009°55'2 3.7
2017-Sep-12 19:30N 43°50' E 009°53'510.0
2017-Sep-12 19:00N 43°48' E 009°47'510.2
2017-Sep-12 18:31N 43°45' E 009°41'510.2
2017-Sep-12 18:00N 43°43' E 009°35'510.3
2017-Sep-12 17:30N 43°41' E 009°28'510.4
2017-Sep-12 17:00N 43°39' E 009°22'510.4
2017-Sep-12 16:30N 43°36' E 009°15'510.4
2017-Sep-12 16:01N 43°34' E 009°09'510.4
2017-Sep-12 15:31N 43°32' E 009°03'510.5
2017-Sep-12 15:01N 43°29' E 008°56'510.7
2017-Sep-12 14:31N 43°26' E 008°50'510.8
2017-Sep-12 14:00N 43°23' E 008°44'510.5
2017-Sep-12 13:30N 43°20' E 008°37'510.5
2017-Sep-12 13:00N 43°18' E 008°31'610.6
2017-Sep-12 12:27N 43°15' E 008°24'4910.5
2017-Sep-12 07:45N 42°49' E 007°27'22410.6
2017-Sep-11 10:40N 40°52' E 003°10'210.2
2017-Sep-11 10:29N 40°51' E 003°07'610.2
2017-Sep-11 09:56N 40°48' E 003°01'510.4
2017-Sep-11 09:30N 40°46' E 002°56'510.4
2017-Sep-11 09:00N 40°43' E 002°50'510.3
2017-Sep-11 08:30N 40°40' E 002°44'510.5
2017-Sep-11 08:00N 40°38' E 002°39'510.6
2017-Sep-11 07:30N 40°35' E 002°33'510.6
2017-Sep-11 07:00N 40°32' E 002°27'510.3
2017-Sep-11 06:30N 40°29' E 002°21'510.2
2017-Sep-11 06:00N 40°27' E 002°15'510.1
2017-Sep-11 05:30N 40°24' E 002°09'510.1
2017-Sep-11 05:00N 40°22' E 002°04'510.1
2017-Sep-11 04:30N 40°19' E 001°58'510.0
2017-Sep-11 04:00N 40°16' E 001°53'5 9.7
2017-Sep-11 03:30N 40°14' E 001°47'5 9.6
2017-Sep-11 03:00N 40°11' E 001°42'5 9.7
2017-Sep-11 02:30N 40°09' E 001°36'5 9.9
2017-Sep-11 02:00N 40°06' E 001°31'510.2
2017-Sep-11 01:30N 40°03' E 001°25'510.1
2017-Sep-11 01:00N 40°01' E 001°19'510.1
2017-Sep-11 00:30N 39°58' E 001°14'510.2
2017-Sep-11 00:00N 39°56' E 001°08'510.4
2017-Sep-10 23:30N 39°53' E 001°02'610.4
2017-Sep-10 22:57N 39°50' E 000°56'  

Dump ship's entire track history